sensor_id;sensor_type;location;lat;lon;timestamp;pressure;altitude;pressure_sealevel;temperature;humidity
46642;BME280;32370;41.864;-88.124;2023-02-10T00:01:22;98390.95;;;0.19;100.00
46642;BME280;32370;41.864;-88.124;2023-02-10T00:03:50;98404.49;;;0.02;100.00
46642;BME280;32370;41.864;-88.124;2023-02-10T00:06:21;98419.84;;;0.26;100.00
46642;BME280;32370;41.864;-88.124;2023-02-10T00:08:52;98423.06;;;0.16;100.00
46642;BME280;32370;41.864;-88.124;2023-02-10T00:11:21;98439.89;;;0.14;100.00
46642;BME280;32370;41.864;-88.124;2023-02-10T00:13:49;98448.70;;;0.27;100.00
46642;BME280;32370;41.864;-88.124;2023-02-10T00:16:17;98463.84;;;0.56;100.00
46642;BME280;32370;41.864;-88.124;2023-02-10T00:18:45;98475.54;;;0.31;100.00
46642;BME280;32370;41.864;-88.124;2023-02-10T00:21:15;98481.60;;;0.30;100.00
46642;BME280;32370;41.864;-88.124;2023-02-10T00:23:44;98488.21;;;0.12;100.00
46642;BME280;32370;41.864;-88.124;2023-02-10T00:26:13;98502.48;;;0.34;100.00
46642;BME280;32370;41.864;-88.124;2023-02-10T00:28:41;98509.94;;;0.35;100.00
46642;BME280;32370;41.864;-88.124;2023-02-10T00:31:11;98513.99;;;0.57;100.00
46642;BME280;32370;41.864;-88.124;2023-02-10T00:33:39;98529.06;;;0.30;100.00
46642;BME280;32370;41.864;-88.124;2023-02-10T00:36:09;98530.25;;;0.31;100.00
46642;BME280;32370;41.864;-88.124;2023-02-10T00:38:38;98536.99;;;0.37;100.00
46642;BME280;32370;41.864;-88.124;2023-02-10T00:41:09;98543.67;;;0.42;100.00
46642;BME280;32370;41.864;-88.124;2023-02-10T00:43:38;98539.44;;;0.45;100.00
46642;BME280;32370;41.864;-88.124;2023-02-10T00:46:06;98544.83;;;0.48;100.00
46642;BME280;32370;41.864;-88.124;2023-02-10T00:48:34;98551.22;;;0.28;100.00
46642;BME280;32370;41.864;-88.124;2023-02-10T00:51:03;98561.86;;;0.52;100.00
46642;BME280;32370;41.864;-88.124;2023-02-10T00:53:32;98566.16;;;0.32;100.00
46642;BME280;32370;41.864;-88.124;2023-02-10T00:56:00;98562.94;;;0.32;100.00
46642;BME280;32370;41.864;-88.124;2023-02-10T00:58:29;98571.61;;;0.16;100.00
46642;BME280;32370;41.864;-88.124;2023-02-10T01:00:57;98575.05;;;0.29;100.00
46642;BME280;32370;41.864;-88.124;2023-02-10T01:03:25;98581.69;;;0.49;100.00
46642;BME280;32370;41.864;-88.124;2023-02-10T01:05:53;98584.92;;;0.28;100.00
46642;BME280;32370;41.864;-88.124;2023-02-10T01:08:22;98600.22;;;0.30;100.00
46642;BME280;32370;41.864;-88.124;2023-02-10T01:10:58;98612.49;;;0.26;100.00
46642;BME280;32370;41.864;-88.124;2023-02-10T01:13:26;98619.37;;;0.50;100.00
46642;BME280;32370;41.864;-88.124;2023-02-10T01:15:54;98633.96;;;0.51;100.00
46642;BME280;32370;41.864;-88.124;2023-02-10T01:18:22;98643.54;;;0.47;100.00
46642;BME280;32370;41.864;-88.124;2023-02-10T01:20:50;98650.77;;;0.45;100.00
46642;BME280;32370;41.864;-88.124;2023-02-10T01:23:18;98659.66;;;0.50;100.00
46642;BME280;32370;41.864;-88.124;2023-02-10T01:25:46;98675.28;;;0.51;100.00
46642;BME280;32370;41.864;-88.124;2023-02-10T01:28:14;98687.19;;;0.37;100.00
46642;BME280;32370;41.864;-88.124;2023-02-10T01:30:41;98695.90;;;0.39;100.00
46642;BME280;32370;41.864;-88.124;2023-02-10T01:33:09;98695.13;;;0.44;100.00
46642;BME280;32370;41.864;-88.124;2023-02-10T01:35:38;98705.28;;;0.68;100.00
46642;BME280;32370;41.864;-88.124;2023-02-10T01:38:06;98719.20;;;0.71;100.00
46642;BME280;32370;41.864;-88.124;2023-02-10T01:40:34;98725.43;;;0.71;100.00
46642;BME280;32370;41.864;-88.124;2023-02-10T01:43:02;98722.31;;;0.77;100.00
46642;BME280;32370;41.864;-88.124;2023-02-10T01:45:33;98725.34;;;0.37;100.00
46642;BME280;32370;41.864;-88.124;2023-02-10T01:48:02;98732.73;;;0.43;100.00
46642;BME280;32370;41.864;-88.124;2023-02-10T01:50:36;98736.39;;;0.81;100.00
46642;BME280;32370;41.864;-88.124;2023-02-10T01:53:06;98733.79;;;0.77;100.00
46642;BME280;32370;41.864;-88.124;2023-02-10T01:55:35;98746.60;;;0.74;100.00
46642;BME280;32370;41.864;-88.124;2023-02-10T01:58:08;98749.97;;;0.37;100.00
46642;BME280;32370;41.864;-88.124;2023-02-10T02:00:37;98748.81;;;0.54;100.00
46642;BME280;32370;41.864;-88.124;2023-02-10T02:03:06;98753.70;;;0.33;100.00
46642;BME280;32370;41.864;-88.124;2023-02-10T02:05:36;98758.74;;;0.31;100.00
46642;BME280;32370;41.864;-88.124;2023-02-10T02:08:08;98757.62;;;0.32;100.00
46642;BME280;32370;41.864;-88.124;2023-02-10T02:10:47;98764.30;;;0.88;100.00
46642;BME280;32370;41.864;-88.124;2023-02-10T02:13:28;98772.78;;;0.35;100.00
46642;BME280;32370;41.864;-88.124;2023-02-10T02:16:04;98776.83;;;0.90;100.00
46642;BME280;32370;41.864;-88.124;2023-02-10T02:18:41;98787.71;;;0.89;100.00
46642;BME280;32370;41.864;-88.124;2023-02-10T02:22:10;98792.06;;;1.37;100.00
46642;BME280;32370;41.864;-88.124;2023-02-10T02:25:02;98798.47;;;0.70;100.00
46642;BME280;32370;41.864;-88.124;2023-02-10T02:27:50;98803.64;;;0.87;100.00
46642;BME280;32370;41.864;-88.124;2023-02-10T02:30:43;98808.40;;;0.40;100.00
46642;BME280;32370;41.864;-88.124;2023-02-10T02:33:15;98812.61;;;0.50;100.00
46642;BME280;32370;41.864;-88.124;2023-02-10T02:35:52;98809.39;;;0.43;100.00
46642;BME280;32370;41.864;-88.124;2023-02-10T02:38:23;98818.56;;;0.16;100.00
46642;BME280;32370;41.864;-88.124;2023-02-10T02:40:51;98829.08;;;-0.01;100.00
46642;BME280;32370;41.864;-88.124;2023-02-10T02:43:19;98832.83;;;-0.08;100.00
46642;BME280;32370;41.864;-88.124;2023-02-10T02:45:52;98832.09;;;-0.26;100.00
46642;BME280;32370;41.864;-88.124;2023-02-10T02:48:40;98839.84;;;0.09;100.00
46642;BME280;32370;41.864;-88.124;2023-02-10T02:51:19;98848.84;;;0.15;100.00
46642;BME280;32370;41.864;-88.124;2023-02-10T02:53:59;98855.74;;;0.11;100.00
46642;BME280;32370;41.864;-88.124;2023-02-10T02:56:34;98859.48;;;0.36;100.00
46642;BME280;32370;41.864;-88.124;2023-02-10T02:59:11;98863.86;;;0.41;100.00
46642;BME280;32370;41.864;-88.124;2023-02-10T03:01:46;98870.30;;;0.18;100.00
46642;BME280;32370;41.864;-88.124;2023-02-10T03:04:17;98872.80;;;0.09;100.00
46642;BME280;32370;41.864;-88.124;2023-02-10T03:06:45;98874.22;;;0.13;100.00
46642;BME280;32370;41.864;-88.124;2023-02-10T03:09:14;98875.50;;;0.60;100.00
46642;BME280;32370;41.864;-88.124;2023-02-10T03:11:44;98880.93;;;0.61;100.00
46642;BME280;32370;41.864;-88.124;2023-02-10T03:14:12;98887.74;;;0.60;100.00
46642;BME280;32370;41.864;-88.124;2023-02-10T03:16:40;98893.29;;;0.13;100.00
46642;BME280;32370;41.864;-88.124;2023-02-10T03:19:08;98901.08;;;0.14;100.00
46642;BME280;32370;41.864;-88.124;2023-02-10T03:21:36;98901.86;;;0.18;100.00
46642;BME280;32370;41.864;-88.124;2023-02-10T03:24:04;98906.04;;;0.16;100.00
46642;BME280;32370;41.864;-88.124;2023-02-10T03:26:33;98905.70;;;0.07;100.00
46642;BME280;32370;41.864;-88.124;2023-02-10T03:29:01;98907.02;;;0.12;100.00
46642;BME280;32370;41.864;-88.124;2023-02-10T03:31:29;98907.04;;;0.14;100.00
46642;BME280;32370;41.864;-88.124;2023-02-10T03:33:57;98910.45;;;-0.16;100.00
46642;BME280;32370;41.864;-88.124;2023-02-10T03:36:25;98909.98;;;0.19;100.00
46642;BME280;32370;41.864;-88.124;2023-02-10T03:38:53;98906.40;;;0.15;100.00
46642;BME280;32370;41.864;-88.124;2023-02-10T03:41:21;98910.38;;;0.16;100.00
46642;BME280;32370;41.864;-88.124;2023-02-10T03:43:49;98910.12;;;0.38;100.00
46642;BME280;32370;41.864;-88.124;2023-02-10T03:46:17;98913.18;;;0.65;100.00
46642;BME280;32370;41.864;-88.124;2023-02-10T03:48:45;98914.89;;;0.64;100.00
46642;BME280;32370;41.864;-88.124;2023-02-10T03:51:13;98923.91;;;0.37;100.00
46642;BME280;32370;41.864;-88.124;2023-02-10T03:53:41;98923.87;;;-0.09;100.00
46642;BME280;32370;41.864;-88.124;2023-02-10T03:56:09;98922.85;;;0.46;100.00
46642;BME280;32370;41.864;-88.124;2023-02-10T03:58:37;98924.80;;;0.25;100.00
46642;BME280;32370;41.864;-88.124;2023-02-10T04:01:14;98935.42;;;0.31;100.00
46642;BME280;32370;41.864;-88.124;2023-02-10T04:03:43;98938.44;;;0.32;100.00
46642;BME280;32370;41.864;-88.124;2023-02-10T04:06:11;98941.67;;;0.33;100.00
46642;BME280;32370;41.864;-88.124;2023-02-10T04:08:40;98954.37;;;0.36;100.00
46642;BME280;32370;41.864;-88.124;2023-02-10T04:11:08;98956.08;;;0.05;100.00
46642;BME280;32370;41.864;-88.124;2023-02-10T04:13:37;98964.43;;;0.15;100.00
46642;BME280;32370;41.864;-88.124;2023-02-10T04:16:07;98965.21;;;0.05;100.00
46642;BME280;32370;41.864;-88.124;2023-02-10T04:18:36;98968.86;;;0.05;100.00
46642;BME280;32370;41.864;-88.124;2023-02-10T04:21:05;98971.71;;;0.31;100.00
46642;BME280;32370;41.864;-88.124;2023-02-10T04:23:34;98978.56;;;0.05;100.00
46642;BME280;32370;41.864;-88.124;2023-02-10T04:26:03;98975.59;;;-0.35;100.00
46642;BME280;32370;41.864;-88.124;2023-02-10T04:28:31;98980.79;;;-0.10;100.00
46642;BME280;32370;41.864;-88.124;2023-02-10T04:31:00;98977.12;;;-0.06;100.00
46642;BME280;32370;41.864;-88.124;2023-02-10T04:33:29;98983.71;;;0.41;100.00
46642;BME280;32370;41.864;-88.124;2023-02-10T04:35:56;98997.03;;;0.18;100.00
46642;BME280;32370;41.864;-88.124;2023-02-10T04:38:25;99007.85;;;0.35;100.00
46642;BME280;32370;41.864;-88.124;2023-02-10T04:40:52;99009.76;;;0.18;100.00
46642;BME280;32370;41.864;-88.124;2023-02-10T04:43:20;99014.41;;;-0.01;100.00
46642;BME280;32370;41.864;-88.124;2023-02-10T04:45:48;99012.13;;;0.55;100.00
46642;BME280;32370;41.864;-88.124;2023-02-10T04:48:16;99011.24;;;-0.21;100.00
46642;BME280;32370;41.864;-88.124;2023-02-10T04:50:44;99012.22;;;-0.12;100.00
46642;BME280;32370;41.864;-88.124;2023-02-10T04:53:12;99015.27;;;-0.45;100.00
46642;BME280;32370;41.864;-88.124;2023-02-10T04:55:40;99021.83;;;0.27;100.00
46642;BME280;32370;41.864;-88.124;2023-02-10T04:58:08;99019.83;;;-0.07;100.00
46642;BME280;32370;41.864;-88.124;2023-02-10T05:00:36;99022.73;;;0.27;100.00
46642;BME280;32370;41.864;-88.124;2023-02-10T05:03:04;99027.22;;;0.16;100.00
46642;BME280;32370;41.864;-88.124;2023-02-10T05:05:32;99032.68;;;-0.07;100.00
46642;BME280;32370;41.864;-88.124;2023-02-10T05:08:00;99041.61;;;0.28;100.00
46642;BME280;32370;41.864;-88.124;2023-02-10T05:10:28;99041.77;;;-0.47;100.00
46642;BME280;32370;41.864;-88.124;2023-02-10T05:12:56;99043.62;;;-0.22;100.00
46642;BME280;32370;41.864;-88.124;2023-02-10T05:15:24;99045.38;;;-0.15;100.00
46642;BME280;32370;41.864;-88.124;2023-02-10T05:17:52;99050.41;;;-0.20;100.00
46642;BME280;32370;41.864;-88.124;2023-02-10T05:20:20;99055.92;;;0.71;100.00
46642;BME280;32370;41.864;-88.124;2023-02-10T05:22:48;99065.25;;;0.25;100.00
46642;BME280;32370;41.864;-88.124;2023-02-10T05:25:16;99073.85;;;-0.41;100.00
46642;BME280;32370;41.864;-88.124;2023-02-10T05:27:46;99077.99;;;0.31;100.00
46642;BME280;32370;41.864;-88.124;2023-02-10T05:30:14;99080.35;;;-0.64;100.00
46642;BME280;32370;41.864;-88.124;2023-02-10T05:32:42;99095.32;;;-0.80;100.00
46642;BME280;32370;41.864;-88.124;2023-02-10T05:35:11;99098.08;;;-0.04;100.00
46642;BME280;32370;41.864;-88.124;2023-02-10T05:37:39;99100.78;;;-0.62;100.00
46642;BME280;32370;41.864;-88.124;2023-02-10T05:40:08;99104.69;;;-0.40;100.00
46642;BME280;32370;41.864;-88.124;2023-02-10T05:42:36;99108.95;;;-0.53;100.00
46642;BME280;32370;41.864;-88.124;2023-02-10T05:45:04;99110.65;;;-0.83;100.00
46642;BME280;32370;41.864;-88.124;2023-02-10T05:47:32;99112.62;;;-0.80;100.00
46642;BME280;32370;41.864;-88.124;2023-02-10T05:50:00;99120.87;;;-0.57;100.00
46642;BME280;32370;41.864;-88.124;2023-02-10T05:52:28;99126.61;;;-0.66;100.00
46642;BME280;32370;41.864;-88.124;2023-02-10T05:54:56;99126.55;;;-0.59;100.00
46642;BME280;32370;41.864;-88.124;2023-02-10T05:57:24;99132.57;;;-0.29;100.00
46642;BME280;32370;41.864;-88.124;2023-02-10T05:59:52;99128.72;;;-0.96;100.00
46642;BME280;32370;41.864;-88.124;2023-02-10T06:02:20;99133.52;;;-0.72;100.00
46642;BME280;32370;41.864;-88.124;2023-02-10T06:04:48;99138.03;;;-0.52;100.00
46642;BME280;32370;41.864;-88.124;2023-02-10T06:07:16;99139.69;;;-0.06;100.00
46642;BME280;32370;41.864;-88.124;2023-02-10T06:09:44;99143.69;;;-0.62;100.00
46642;BME280;32370;41.864;-88.124;2023-02-10T06:12:12;99146.82;;;-0.42;100.00
46642;BME280;32370;41.864;-88.124;2023-02-10T06:14:40;99149.28;;;-0.15;100.00
46642;BME280;32370;41.864;-88.124;2023-02-10T06:17:09;99159.21;;;-0.03;100.00
46642;BME280;32370;41.864;-88.124;2023-02-10T06:19:37;99169.36;;;-0.88;100.00
46642;BME280;32370;41.864;-88.124;2023-02-10T06:22:06;99170.25;;;-0.25;100.00
46642;BME280;32370;41.864;-88.124;2023-02-10T06:24:35;99177.35;;;-0.12;100.00
46642;BME280;32370;41.864;-88.124;2023-02-10T06:27:03;99181.45;;;0.38;100.00
46642;BME280;32370;41.864;-88.124;2023-02-10T06:29:31;99182.91;;;-0.10;100.00
46642;BME280;32370;41.864;-88.124;2023-02-10T06:31:59;99190.00;;;-0.10;100.00
46642;BME280;32370;41.864;-88.124;2023-02-10T06:34:27;99191.58;;;0.02;100.00
46642;BME280;32370;41.864;-88.124;2023-02-10T06:36:55;99188.28;;;-0.10;100.00
46642;BME280;32370;41.864;-88.124;2023-02-10T06:39:23;99192.80;;;-0.31;100.00
46642;BME280;32370;41.864;-88.124;2023-02-10T06:41:51;99195.15;;;-0.76;100.00
46642;BME280;32370;41.864;-88.124;2023-02-10T06:44:19;99197.23;;;-0.63;100.00
46642;BME280;32370;41.864;-88.124;2023-02-10T06:46:47;99207.42;;;-0.45;100.00
46642;BME280;32370;41.864;-88.124;2023-02-10T06:49:15;99210.34;;;-0.43;100.00
46642;BME280;32370;41.864;-88.124;2023-02-10T06:51:42;99214.02;;;0.16;100.00
46642;BME280;32370;41.864;-88.124;2023-02-10T06:54:10;99211.18;;;-0.52;100.00
46642;BME280;32370;41.864;-88.124;2023-02-10T06:56:38;99213.43;;;-0.53;100.00
46642;BME280;32370;41.864;-88.124;2023-02-10T06:59:06;99209.81;;;-0.45;100.00
46642;BME280;32370;41.864;-88.124;2023-02-10T07:01:34;99210.99;;;-0.68;100.00
46642;BME280;32370;41.864;-88.124;2023-02-10T07:04:02;99211.11;;;-0.49;100.00
46642;BME280;32370;41.864;-88.124;2023-02-10T07:06:30;99215.30;;;-0.35;100.00
46642;BME280;32370;41.864;-88.124;2023-02-10T07:08:58;99220.82;;;-0.58;100.00
46642;BME280;32370;41.864;-88.124;2023-02-10T07:11:26;99218.99;;;-0.94;100.00
46642;BME280;32370;41.864;-88.124;2023-02-10T07:13:54;99218.33;;;-0.86;100.00
46642;BME280;32370;41.864;-88.124;2023-02-10T07:16:22;99219.84;;;-1.06;100.00
46642;BME280;32370;41.864;-88.124;2023-02-10T07:18:53;99222.06;;;-1.10;100.00
46642;BME280;32370;41.864;-88.124;2023-02-10T07:21:21;99224.48;;;-1.24;100.00
46642;BME280;32370;41.864;-88.124;2023-02-10T07:23:49;99227.61;;;-0.72;100.00
46642;BME280;32370;41.864;-88.124;2023-02-10T07:26:17;99226.07;;;-0.50;100.00
46642;BME280;32370;41.864;-88.124;2023-02-10T07:28:45;99230.44;;;-0.22;100.00
46642;BME280;32370;41.864;-88.124;2023-02-10T07:31:14;99233.60;;;-0.17;100.00
46642;BME280;32370;41.864;-88.124;2023-02-10T07:33:42;99242.88;;;-0.05;100.00
46642;BME280;32370;41.864;-88.124;2023-02-10T07:36:11;99250.46;;;-0.54;100.00
46642;BME280;32370;41.864;-88.124;2023-02-10T07:38:39;99249.76;;;-0.54;100.00
46642;BME280;32370;41.864;-88.124;2023-02-10T07:41:07;99253.93;;;-0.87;100.00
46642;BME280;32370;41.864;-88.124;2023-02-10T07:43:36;99253.80;;;-0.52;100.00
46642;BME280;32370;41.864;-88.124;2023-02-10T07:46:04;99257.55;;;-1.44;100.00
46642;BME280;32370;41.864;-88.124;2023-02-10T07:48:32;99262.66;;;-1.20;100.00
46642;BME280;32370;41.864;-88.124;2023-02-10T07:51:00;99262.35;;;-1.01;100.00
46642;BME280;32370;41.864;-88.124;2023-02-10T07:53:28;99262.43;;;-0.71;100.00
46642;BME280;32370;41.864;-88.124;2023-02-10T07:55:58;99263.92;;;-0.69;100.00
46642;BME280;32370;41.864;-88.124;2023-02-10T07:58:26;99272.01;;;-0.92;100.00
46642;BME280;32370;41.864;-88.124;2023-02-10T08:00:54;99277.55;;;-0.80;100.00
46642;BME280;32370;41.864;-88.124;2023-02-10T08:03:22;99281.20;;;-0.90;100.00
46642;BME280;32370;41.864;-88.124;2023-02-10T08:05:50;99282.29;;;-0.41;100.00
46642;BME280;32370;41.864;-88.124;2023-02-10T08:08:18;99281.59;;;-0.73;100.00
46642;BME280;32370;41.864;-88.124;2023-02-10T08:10:46;99286.13;;;-1.18;100.00
46642;BME280;32370;41.864;-88.124;2023-02-10T08:13:14;99290.60;;;-1.29;100.00
46642;BME280;32370;41.864;-88.124;2023-02-10T08:15:42;99288.99;;;-1.56;100.00
46642;BME280;32370;41.864;-88.124;2023-02-10T08:18:10;99289.02;;;-1.01;100.00
46642;BME280;32370;41.864;-88.124;2023-02-10T08:20:40;99290.12;;;-0.55;100.00
46642;BME280;32370;41.864;-88.124;2023-02-10T08:23:13;99291.44;;;-0.89;100.00
46642;BME280;32370;41.864;-88.124;2023-02-10T08:25:41;99296.45;;;-0.67;100.00
46642;BME280;32370;41.864;-88.124;2023-02-10T08:28:09;99301.64;;;-0.70;100.00
46642;BME280;32370;41.864;-88.124;2023-02-10T08:30:37;99302.96;;;-0.66;100.00
46642;BME280;32370;41.864;-88.124;2023-02-10T08:33:04;99300.67;;;-1.01;100.00
46642;BME280;32370;41.864;-88.124;2023-02-10T08:35:34;99299.76;;;-0.65;100.00
46642;BME280;32370;41.864;-88.124;2023-02-10T08:38:03;99301.29;;;-0.54;100.00
46642;BME280;32370;41.864;-88.124;2023-02-10T08:40:32;99301.43;;;-0.80;100.00
46642;BME280;32370;41.864;-88.124;2023-02-10T08:43:01;99302.92;;;-1.22;100.00
46642;BME280;32370;41.864;-88.124;2023-02-10T08:45:29;99309.52;;;-0.33;100.00
46642;BME280;32370;41.864;-88.124;2023-02-10T08:47:57;99310.10;;;-0.12;100.00
46642;BME280;32370;41.864;-88.124;2023-02-10T08:50:25;99309.36;;;-0.38;100.00
46642;BME280;32370;41.864;-88.124;2023-02-10T08:52:53;99308.00;;;0.32;100.00
46642;BME280;32370;41.864;-88.124;2023-02-10T08:55:21;99313.39;;;-0.91;100.00
46642;BME280;32370;41.864;-88.124;2023-02-10T08:57:49;99311.34;;;-0.58;100.00
46642;BME280;32370;41.864;-88.124;2023-02-10T09:00:17;99314.20;;;-0.57;100.00
46642;BME280;32370;41.864;-88.124;2023-02-10T09:02:45;99309.31;;;-0.75;100.00
46642;BME280;32370;41.864;-88.124;2023-02-10T09:05:13;99305.83;;;-0.88;100.00
46642;BME280;32370;41.864;-88.124;2023-02-10T09:07:41;99306.28;;;-1.10;100.00
46642;BME280;32370;41.864;-88.124;2023-02-10T09:10:10;99306.64;;;-1.18;100.00
46642;BME280;32370;41.864;-88.124;2023-02-10T09:12:38;99307.14;;;-1.10;100.00
46642;BME280;32370;41.864;-88.124;2023-02-10T09:15:08;99304.70;;;-0.93;100.00
46642;BME280;32370;41.864;-88.124;2023-02-10T09:17:36;99305.85;;;-1.25;100.00
46642;BME280;32370;41.864;-88.124;2023-02-10T09:20:05;99306.45;;;-0.52;100.00
46642;BME280;32370;41.864;-88.124;2023-02-10T09:22:35;99312.23;;;-0.84;100.00
46642;BME280;32370;41.864;-88.124;2023-02-10T09:25:03;99317.41;;;-1.26;100.00
46642;BME280;32370;41.864;-88.124;2023-02-10T09:27:32;99327.22;;;-1.31;100.00
46642;BME280;32370;41.864;-88.124;2023-02-10T09:29:59;99328.09;;;-0.67;100.00
46642;BME280;32370;41.864;-88.124;2023-02-10T09:32:27;99330.49;;;-1.12;100.00
46642;BME280;32370;41.864;-88.124;2023-02-10T09:34:56;99332.77;;;-1.32;100.00
46642;BME280;32370;41.864;-88.124;2023-02-10T09:37:24;99330.89;;;-1.14;100.00
46642;BME280;32370;41.864;-88.124;2023-02-10T09:39:52;99333.43;;;-1.13;100.00
46642;BME280;32370;41.864;-88.124;2023-02-10T09:42:28;99338.76;;;-1.11;100.00
46642;BME280;32370;41.864;-88.124;2023-02-10T09:45:15;99340.76;;;-1.14;100.00
46642;BME280;32370;41.864;-88.124;2023-02-10T09:47:49;99349.95;;;-1.14;100.00
46642;BME280;32370;41.864;-88.124;2023-02-10T09:50:30;99352.07;;;-1.33;100.00
46642;BME280;32370;41.864;-88.124;2023-02-10T09:53:10;99351.69;;;-1.08;100.00
46642;BME280;32370;41.864;-88.124;2023-02-10T09:55:43;99357.33;;;-0.75;100.00
46642;BME280;32370;41.864;-88.124;2023-02-10T09:58:19;99357.26;;;-1.05;100.00
46642;BME280;32370;41.864;-88.124;2023-02-10T10:00:54;99357.13;;;-0.96;100.00
46642;BME280;32370;41.864;-88.124;2023-02-10T10:03:27;99355.48;;;-0.41;100.00
46642;BME280;32370;41.864;-88.124;2023-02-10T10:06:06;99358.05;;;-0.64;100.00
46642;BME280;32370;41.864;-88.124;2023-02-10T10:08:47;99360.11;;;-1.01;100.00
46642;BME280;32370;41.864;-88.124;2023-02-10T10:11:24;99361.28;;;-0.90;100.00
46642;BME280;32370;41.864;-88.124;2023-02-10T10:13:54;99362.01;;;-0.89;100.00
46642;BME280;32370;41.864;-88.124;2023-02-10T10:17:19;99364.31;;;-0.48;100.00
46642;BME280;32370;41.864;-88.124;2023-02-10T10:19:59;99365.67;;;-0.95;100.00
46642;BME280;32370;41.864;-88.124;2023-02-10T10:22:43;99371.89;;;-1.17;100.00
46642;BME280;32370;41.864;-88.124;2023-02-10T10:26:03;99374.85;;;-0.68;100.00
46642;BME280;32370;41.864;-88.124;2023-02-10T10:28:44;99377.27;;;-1.02;100.00
46642;BME280;32370;41.864;-88.124;2023-02-10T10:31:15;99383.52;;;-1.25;100.00
46642;BME280;32370;41.864;-88.124;2023-02-10T10:33:49;99387.27;;;-0.90;100.00
46642;BME280;32370;41.864;-88.124;2023-02-10T10:36:20;99394.62;;;-0.68;100.00
46642;BME280;32370;41.864;-88.124;2023-02-10T10:38:51;99399.47;;;-1.00;100.00
46642;BME280;32370;41.864;-88.124;2023-02-10T10:41:23;99400.01;;;-0.48;100.00
46642;BME280;32370;41.864;-88.124;2023-02-10T10:43:55;99404.49;;;-0.61;100.00
46642;BME280;32370;41.864;-88.124;2023-02-10T10:46:27;99410.23;;;-0.99;100.00
46642;BME280;32370;41.864;-88.124;2023-02-10T10:48:58;99414.74;;;-1.10;100.00
46642;BME280;32370;41.864;-88.124;2023-02-10T10:51:26;99417.79;;;-1.22;100.00
46642;BME280;32370;41.864;-88.124;2023-02-10T10:53:56;99419.86;;;-1.03;100.00
46642;BME280;32370;41.864;-88.124;2023-02-10T10:56:33;99425.23;;;-1.08;100.00
46642;BME280;32370;41.864;-88.124;2023-02-10T10:59:11;99429.88;;;-1.15;100.00
46642;BME280;32370;41.864;-88.124;2023-02-10T11:01:43;99437.61;;;-0.97;100.00
46642;BME280;32370;41.864;-88.124;2023-02-10T11:04:13;99441.73;;;-0.83;100.00
46642;BME280;32370;41.864;-88.124;2023-02-10T11:06:43;99442.33;;;-0.90;100.00
46642;BME280;32370;41.864;-88.124;2023-02-10T11:09:20;99444.53;;;-1.46;100.00
46642;BME280;32370;41.864;-88.124;2023-02-10T11:11:49;99452.16;;;-1.10;100.00
46642;BME280;32370;41.864;-88.124;2023-02-10T11:14:20;99452.91;;;-0.95;100.00
46642;BME280;32370;41.864;-88.124;2023-02-10T11:16:51;99455.79;;;-1.01;100.00
46642;BME280;32370;41.864;-88.124;2023-02-10T11:19:23;99459.47;;;-0.94;100.00
46642;BME280;32370;41.864;-88.124;2023-02-10T11:21:52;99465.64;;;-0.92;100.00
46642;BME280;32370;41.864;-88.124;2023-02-10T11:24:24;99468.70;;;-1.16;100.00
46642;BME280;32370;41.864;-88.124;2023-02-10T11:26:56;99474.65;;;-0.67;100.00
46642;BME280;32370;41.864;-88.124;2023-02-10T11:29:25;99487.56;;;-0.45;100.00
46642;BME280;32370;41.864;-88.124;2023-02-10T11:31:55;99485.77;;;-0.70;99.03
46642;BME280;32370;41.864;-88.124;2023-02-10T11:34:27;99489.94;;;-1.06;99.31
46642;BME280;32370;41.864;-88.124;2023-02-10T11:36:57;99491.57;;;-0.82;98.21
46642;BME280;32370;41.864;-88.124;2023-02-10T11:39:30;99499.51;;;-0.86;97.78
46642;BME280;32370;41.864;-88.124;2023-02-10T11:42:08;99502.53;;;-1.00;94.77
46642;BME280;32370;41.864;-88.124;2023-02-10T11:44:37;99506.51;;;-1.27;96.67
46642;BME280;32370;41.864;-88.124;2023-02-10T11:47:12;99511.87;;;-1.42;94.22
46642;BME280;32370;41.864;-88.124;2023-02-10T11:49:44;99519.03;;;-1.58;94.57
46642;BME280;32370;41.864;-88.124;2023-02-10T11:52:13;99523.82;;;-1.52;93.26
46642;BME280;32370;41.864;-88.124;2023-02-10T11:54:42;99522.29;;;-1.41;93.45
46642;BME280;32370;41.864;-88.124;2023-02-10T11:57:26;99524.26;;;-1.71;93.50
46642;BME280;32370;41.864;-88.124;2023-02-10T12:00:06;99529.81;;;-1.69;91.47
46642;BME280;32370;41.864;-88.124;2023-02-10T12:02:48;99529.62;;;-1.68;89.66
46642;BME280;32370;41.864;-88.124;2023-02-10T12:05:26;99530.09;;;-1.48;87.18
46642;BME280;32370;41.864;-88.124;2023-02-10T12:08:06;99531.50;;;-1.74;87.01
46642;BME280;32370;41.864;-88.124;2023-02-10T12:10:42;99534.94;;;-1.95;87.46
46642;BME280;32370;41.864;-88.124;2023-02-10T12:13:20;99537.02;;;-2.45;87.77
46642;BME280;32370;41.864;-88.124;2023-02-10T12:15:57;99540.22;;;-2.46;89.73
46642;BME280;32370;41.864;-88.124;2023-02-10T12:18:39;99543.23;;;-2.53;90.08
46642;BME280;32370;41.864;-88.124;2023-02-10T12:21:24;99551.99;;;-2.54;92.25
46642;BME280;32370;41.864;-88.124;2023-02-10T12:24:07;99548.12;;;-2.84;93.53
46642;BME280;32370;41.864;-88.124;2023-02-10T12:26:44;99548.50;;;-2.70;93.37
46642;BME280;32370;41.864;-88.124;2023-02-10T12:29:21;99550.63;;;-3.09;94.70
46642;BME280;32370;41.864;-88.124;2023-02-10T12:32:00;99550.33;;;-3.21;94.75
46642;BME280;32370;41.864;-88.124;2023-02-10T12:34:50;99555.23;;;-2.97;95.24
46642;BME280;32370;41.864;-88.124;2023-02-10T12:37:32;99557.76;;;-2.78;95.08
46642;BME280;32370;41.864;-88.124;2023-02-10T12:40:16;99556.02;;;-3.10;95.64
46642;BME280;32370;41.864;-88.124;2023-02-10T12:42:55;99555.52;;;-2.99;95.86
46642;BME280;32370;41.864;-88.124;2023-02-10T12:45:31;99561.44;;;-3.29;95.02
46642;BME280;32370;41.864;-88.124;2023-02-10T12:48:07;99563.88;;;-3.23;94.87
46642;BME280;32370;41.864;-88.124;2023-02-10T12:50:55;99567.50;;;-2.86;94.91
46642;BME280;32370;41.864;-88.124;2023-02-10T12:53:32;99576.60;;;-2.97;95.55
46642;BME280;32370;41.864;-88.124;2023-02-10T12:56:05;99585.62;;;-3.20;95.20